Saturday, December 15, 2018, 11:25 PM EST
Back to Local

KFMH, Otis Air National Guard Base

Location: Mashpee, MA, United States Lat: 41.65
Local Time: 11:25 PM EST ( 4:25 GMT) Lon: -70.517
Time Zone: US/Eastern Elev: 131 ft

Show me the last for .
Show Decoded

2018-12-15 21:55 METAR KFMH 160255Z 06012KT 10SM SKC 06/02 A3022 =
2018-12-15 20:45 METAR KFMH 160145Z 07014KT 10SM SKC 06/03 A3021 =
2018-12-15 18:50 METAR KFMH 152350Z 05013G20KT 10SM SKC 06/09 A3016 =
2018-12-15 17:45 METAR KFMH 152245Z 050018KT 10SM SKC 08/04 A3014 =
2018-12-15 16:45 METAR KFMH 152145Z 050010G17KT 10SM SKC 08/07 A3015 =
2018-12-15 15:45 METAR KFMH 152045Z 03007KT 10SM BKN046 09/08 A3015 =
2018-12-15 14:50 METAR KFMH 151950Z 03005KT 10SM OVC040 11/08 A3013 =
2018-12-15 13:45 METAR KFMH 151845Z 00000KT 10SM FEW005 BKN036 OVC045 11/11 A3012 =
2018-12-15 12:50 METAR KFMH 151750Z 00000KT 10SM FEW004 OVC033 10/10 A3014 =
2018-12-15 11:55 METAR KFMH 151655Z 23004KT 10SM FEW003 SCT030 BKN038 10/10 A3015 =
2018-12-15 11:00 METAR KFMH 151600Z 00000KT 1 1/2SM BR BKN004 OKN016 09/09 A3018 =
2018-12-15 10:25 METAR KFMH 151525Z 00000KT 1 1/2SM BR OVC022 09/09 A3021 =
2018-12-15 09:55 METAR KFMH 151455Z 00000KT 03SM BR OVC021 08/08 A3022 =
2018-12-15 08:55 METAR KFMH 151355Z 00000KT 10SM OVC023 08/08 A3022 =
2018-12-15 07:55 METAR KFMH 151255Z 29006KT 10SM OVC028 10/09 A3020 =

Support USWX by starting your Amazon purchase here.